Energy IVy — A8UO8 — position and weather

sailwx.info

Track history (hours):
 
Tides and Currents Weather Stations Pressure Air Temp Water Temp Dewpoint Dewpoint Depression Visibility Wind Speed Wind Dir Waves Ship Positions

Energy IVy

Last reported at 2014-Sep-21 06:31 UTC. Time now 2014-Sep-23 02:20 UTC.
Position N 41°02' E 029°00'.

Length 180 m; draft 6.6 m.

Type: Cargo ship. MMSI: 636091925.

Date/timePositionNaut miles runAvg speedWind from/ knotsBaromVisibWave heightAir tempDewpointWater temp
2014-Sep-21 06:31N 41°02' E 029°00'1010.5
2014-Sep-21 05:33N 40°53' E 028°55'5 5.4
2014-Sep-21 04:34N 40°48' E 028°57'2 2.4
2014-Sep-21 03:33N 40°48' E 029°00'1 0.5
2014-Sep-21 02:26N 40°48' E 029°01'4 4.9
2014-Sep-21 01:32N 40°51' E 028°56'247 6.9
2014-Sep-19 13:33N 37°28' E 025°54'1111.4
2014-Sep-19 12:33N 37°18' E 026°00'1111.2
2014-Sep-19 11:33N 37°08' E 026°07'1211.5
2014-Sep-19 10:29N 36°57' E 026°13'1010.6
2014-Sep-19 09:33N 36°50' E 026°21'  
2014-Sep-13 21:19N 36°60' E 026°12'911.8
2014-Sep-13 20:33N 37°08' E 026°07'1211.6
2014-Sep-13 19:33N 37°19' E 026°01'1211.6
2014-Sep-13 18:33N 37°29' E 025°55'1511.4
2014-Sep-13 17:17N 37°44' E 025°53'3511.3
2014-Sep-13 14:10N 38°19' E 025°49'711.5
2014-Sep-13 13:32N 38°26' E 025°49'1211.7
2014-Sep-13 12:33N 38°38' E 025°48'1212.0
2014-Sep-13 11:31N 38°50' E 025°47'1111.7
2014-Sep-13 10:33N 39°01' E 025°45'18210.0
2014-Sep-12 16:26N 40°55' E 028°50'6 7.2
2014-Sep-12 15:33N 40°58' E 028°58'35 8.5
2014-Sep-12 11:28N 41°26' E 029°26'0 0.1
2014-Sep-12 10:19N 41°26' E 029°26'0 0.1
2014-Sep-12 09:22N 41°26' E 029°26'0 0.2
2014-Sep-12 08:22N 41°26' E 029°26'0 0.4
2014-Sep-12 07:25N 41°26' E 029°26'  
Track history (hours):
 
Tides and Currents Weather Stations Pressure Air Temp Water Temp Dewpoint Dewpoint Depression Visibility Wind Speed Wind Dir Waves Ship Positions

Energy IVy

Last reported at 2014-Sep-21 06:31 UTC. Time now 2014-Sep-23 02:20 UTC.
Position N 41°02' E 029°00'.

Length 180 m; draft 6.6 m.

Type: Cargo ship. MMSI: 636091925.

Date/timePositionNaut miles runAvg speedWind from/ knotsBaromVisibWave heightAir tempDewpointWater temp
2014-Sep-21 06:31N 41°02' E 029°00'1010.5
2014-Sep-21 05:33N 40°53' E 028°55'5 5.4
2014-Sep-21 04:34N 40°48' E 028°57'2 2.4
2014-Sep-21 03:33N 40°48' E 029°00'1 0.5
2014-Sep-21 02:26N 40°48' E 029°01'4 4.9
2014-Sep-21 01:32N 40°51' E 028°56'247 6.9
2014-Sep-19 13:33N 37°28' E 025°54'1111.4
2014-Sep-19 12:33N 37°18' E 026°00'1111.2
2014-Sep-19 11:33N 37°08' E 026°07'1211.5
2014-Sep-19 10:29N 36°57' E 026°13'1010.6
2014-Sep-19 09:33N 36°50' E 026°21'  
2014-Sep-13 21:19N 36°60' E 026°12'911.8
2014-Sep-13 20:33N 37°08' E 026°07'1211.6
2014-Sep-13 19:33N 37°19' E 026°01'1211.6
2014-Sep-13 18:33N 37°29' E 025°55'1511.4
2014-Sep-13 17:17N 37°44' E 025°53'3511.3
2014-Sep-13 14:10N 38°19' E 025°49'711.5
2014-Sep-13 13:32N 38°26' E 025°49'1211.7
2014-Sep-13 12:33N 38°38' E 025°48'1212.0
2014-Sep-13 11:31N 38°50' E 025°47'1111.7
2014-Sep-13 10:33N 39°01' E 025°45'18210.0
2014-Sep-12 16:26N 40°55' E 028°50'6 7.2
2014-Sep-12 15:33N 40°58' E 028°58'35 8.5
2014-Sep-12 11:28N 41°26' E 029°26'0 0.1
2014-Sep-12 10:19N 41°26' E 029°26'0 0.1
2014-Sep-12 09:22N 41°26' E 029°26'0 0.2
2014-Sep-12 08:22N 41°26' E 029°26'0 0.4
2014-Sep-12 07:25N 41°26' E 029°26'  

Dump ship's entire track history